B2502 ZJHK-ZJSY
Flight info
| Callsign | B2502 |
|---|---|
| Flight time | N/A |
| Altitude | 11700 |
| Route | NYB G221 WL |
| Aircraft | B737/M-SDE2E3FGHIRWXY/LB1 |
Departure
| Time | 2026-04-20 12:33 |
|---|---|
| Airport | Haikou Meilan International Airport (ZJHK) |
Arrival
| Time | N/A |
|---|---|
| Airport | Sanya Phoenix International Airport (ZJSY) |
| Time | Latitude | Longitude | Altitude | Speed | Heading |
|---|---|---|---|---|---|
| 2026-04-20 12:17 | 19.94991 | 110.45381 | 83 ft | 0 kts | 149° |
| 2026-04-20 12:21 | 19.94990 | 110.45381 | 83 ft | 0 kts | 149° |
| 2026-04-20 12:21 | 19.94996 | 110.45377 | 83 ft | 2 kts | 147° |
| 2026-04-20 12:21 | 19.95004 | 110.45373 | 83 ft | 2 kts | 149° |
| 2026-04-20 12:22 | 19.95012 | 110.45367 | 83 ft | 2 kts | 150° |
| 2026-04-20 12:22 | 19.95025 | 110.45359 | 83 ft | 2 kts | 149° |
| 2026-04-20 12:22 | 19.95038 | 110.45351 | 83 ft | 2 kts | 149° |
| 2026-04-20 12:22 | 19.95048 | 110.45345 | 83 ft | 1 kts | 167° |
| 2026-04-20 12:23 | 19.95058 | 110.45347 | 83 ft | 1 kts | 227° |
| 2026-04-20 12:23 | 19.95062 | 110.45354 | 83 ft | 0 kts | 268° |
| 2026-04-20 12:23 | 19.95061 | 110.45361 | 83 ft | 0 kts | 269° |
| 2026-04-20 12:25 | 19.95061 | 110.45345 | 83 ft | 3 kts | 269° |
| 2026-04-20 12:26 | 19.95061 | 110.45320 | 83 ft | 7 kts | 269° |
| 2026-04-20 12:26 | 19.95076 | 110.45253 | 83 ft | 12 kts | 332° |
| 2026-04-20 12:26 | 19.95147 | 110.45240 | 83 ft | 3 kts | 359° |
| 2026-04-20 12:26 | 19.95152 | 110.45240 | 83 ft | 0 kts | 359° |
| 2026-04-20 12:27 | 19.95159 | 110.45240 | 83 ft | 1 kts | 358° |
| 2026-04-20 12:27 | 19.95202 | 110.45188 | 83 ft | 21 kts | 273° |
| 2026-04-20 12:27 | 19.95202 | 110.45052 | 83 ft | 17 kts | 268° |
| 2026-04-20 12:27 | 19.95199 | 110.44917 | 83 ft | 18 kts | 268° |
| 2026-04-20 12:28 | 19.95214 | 110.44827 | 83 ft | 9 kts | 317° |
| 2026-04-20 12:28 | 19.95246 | 110.44819 | 83 ft | 0 kts | 358° |
| 2026-04-20 12:29 | 19.95251 | 110.44819 | 83 ft | 4 kts | 359° |
| 2026-04-20 12:29 | 19.95365 | 110.44875 | 83 ft | 21 kts | 59° |
| 2026-04-20 12:29 | 19.95374 | 110.44922 | 83 ft | 0 kts | 88° |
| 2026-04-20 12:32 | 19.95374 | 110.44923 | 83 ft | 0 kts | 88° |
| 2026-04-20 12:32 | 19.95375 | 110.45039 | 83 ft | 58 kts | 89° |
| 2026-04-20 12:32 | 19.95374 | 110.45851 | 84 ft | 155 kts | 91° |
| 2026-04-20 12:32 | 19.95403 | 110.47170 | 666 ft | 195 kts | 89° |
| 2026-04-20 12:33 | 19.95517 | 110.48738 | 1234 ft | 238 kts | 88° |
| 2026-04-20 12:33 | 19.95731 | 110.50625 | 1872 ft | 267 kts | 86° |
| 2026-04-20 12:33 | 19.96295 | 110.52518 | 2732 ft | 278 kts | 65° |
| 2026-04-20 12:33 | 19.97685 | 110.53925 | 3906 ft | 285 kts | 27° |
| 2026-04-20 12:34 | 19.99563 | 110.54261 | 5343 ft | 274 kts | 351° |
| 2026-04-20 12:34 | 20.01191 | 110.53474 | 6734 ft | 259 kts | 316° |
| 2026-04-20 12:34 | 20.02177 | 110.51946 | 7774 ft | 257 kts | 294° |
| 2026-04-20 12:34 | 20.02933 | 110.50215 | 8700 ft | 263 kts | 296° |
| 2026-04-20 12:35 | 20.03891 | 110.48593 | 9658 ft | 265 kts | 306° |
| 2026-04-20 12:35 | 20.05151 | 110.47107 | 10710 ft | 274 kts | 314° |
| 2026-04-20 12:35 | 20.06531 | 110.45725 | 11639 ft | 280 kts | 315° |
| 2026-04-20 12:35 | 20.07984 | 110.44319 | 11795 ft | 280 kts | 316° |
| 2026-04-20 12:36 | 20.09411 | 110.42931 | 11772 ft | 275 kts | 316° |
| 2026-04-20 12:36 | 20.10820 | 110.41544 | 11747 ft | 277 kts | 315° |
| 2026-04-20 12:36 | 20.12231 | 110.40141 | 11765 ft | 286 kts | 315° |
| 2026-04-20 12:36 | 20.13699 | 110.38721 | 11765 ft | 277 kts | 319° |
| 2026-04-20 12:37 | 20.15302 | 110.37623 | 11760 ft | 275 kts | 337° |
| 2026-04-20 12:37 | 20.17187 | 110.37238 | 11771 ft | 274 kts | 352° |
| 2026-04-20 12:37 | 20.19018 | 110.36739 | 11765 ft | 272 kts | 329° |
| 2026-04-20 12:37 | 20.20316 | 110.35345 | 11763 ft | 267 kts | 295° |
| 2026-04-20 12:38 | 20.20646 | 110.33449 | 11761 ft | 264 kts | 264° |
| 2026-04-20 12:38 | 20.20164 | 110.31560 | 11758 ft | 266 kts | 246° |
| 2026-04-20 12:38 | 20.19234 | 110.29853 | 11755 ft | 266 kts | 233° |
| 2026-04-20 12:38 | 20.17929 | 110.28470 | 11759 ft | 268 kts | 218° |
| 2026-04-20 12:39 | 20.14663 | 110.26495 | 11696 ft | 280 kts | 209° |
| 2026-04-20 12:39 | 20.12782 | 110.25459 | 11710 ft | 327 kts | 208° |
| 2026-04-20 12:39 | 20.10616 | 110.24259 | 11709 ft | 368 kts | 208° |
| 2026-04-20 12:40 | 20.08270 | 110.22958 | 11707 ft | 388 kts | 208° |
| 2026-04-20 12:40 | 20.05844 | 110.21616 | 11710 ft | 393 kts | 208° |
| 2026-04-20 12:40 | 20.03424 | 110.20275 | 11707 ft | 393 kts | 208° |
| 2026-04-20 12:40 | 20.00963 | 110.18912 | 11710 ft | 393 kts | 208° |
| 2026-04-20 12:41 | 19.98540 | 110.17568 | 11710 ft | 394 kts | 208° |
| 2026-04-20 12:41 | 19.96097 | 110.16213 | 11707 ft | 394 kts | 208° |
| 2026-04-20 12:41 | 19.93670 | 110.14866 | 11705 ft | 393 kts | 208° |
| 2026-04-20 12:41 | 19.91229 | 110.13512 | 11707 ft | 394 kts | 208° |
| 2026-04-20 12:42 | 19.88801 | 110.12165 | 11711 ft | 394 kts | 208° |
| 2026-04-20 12:42 | 19.86384 | 110.10825 | 11705 ft | 394 kts | 208° |
| 2026-04-20 12:42 | 19.83954 | 110.09477 | 11701 ft | 394 kts | 208° |
| 2026-04-20 12:42 | 19.81504 | 110.08120 | 11698 ft | 394 kts | 208° |
| 2026-04-20 12:43 | 19.79069 | 110.06773 | 11697 ft | 394 kts | 208° |
| 2026-04-20 12:43 | 19.76613 | 110.05414 | 11698 ft | 393 kts | 208° |
| 2026-04-20 12:43 | 19.74196 | 110.04077 | 11696 ft | 394 kts | 208° |
| 2026-04-20 12:43 | 19.71748 | 110.02724 | 11700 ft | 394 kts | 208° |
| 2026-04-20 12:44 | 19.69293 | 110.01367 | 11701 ft | 394 kts | 208° |
| 2026-04-20 12:44 | 19.66864 | 110.00024 | 11704 ft | 394 kts | 208° |
| 2026-04-20 12:44 | 19.64440 | 109.98685 | 11698 ft | 394 kts | 208° |
| 2026-04-20 12:44 | 19.62003 | 109.97337 | 11700 ft | 393 kts | 208° |
| 2026-04-20 12:45 | 19.59542 | 109.95978 | 11704 ft | 394 kts | 208° |
| 2026-04-20 12:45 | 19.57108 | 109.94634 | 11712 ft | 394 kts | 208° |
| 2026-04-20 12:45 | 19.54657 | 109.93282 | 11713 ft | 394 kts | 208° |
| 2026-04-20 12:45 | 19.52230 | 109.91943 | 11718 ft | 396 kts | 208° |
| 2026-04-20 12:46 | 19.49767 | 109.90585 | 11718 ft | 395 kts | 208° |
| 2026-04-20 12:46 | 19.47333 | 109.89243 | 11718 ft | 396 kts | 208° |
| 2026-04-20 12:46 | 19.44868 | 109.87884 | 11720 ft | 396 kts | 208° |
| 2026-04-20 12:46 | 19.42415 | 109.86531 | 11723 ft | 396 kts | 208° |
| 2026-04-20 12:47 | 19.39973 | 109.85186 | 11726 ft | 396 kts | 208° |
| 2026-04-20 12:47 | 19.37515 | 109.83833 | 11729 ft | 396 kts | 208° |
| 2026-04-20 12:47 | 19.35096 | 109.82501 | 11735 ft | 396 kts | 208° |
| 2026-04-20 12:47 | 19.32644 | 109.81150 | 11740 ft | 396 kts | 208° |
| 2026-04-20 12:48 | 19.30191 | 109.79800 | 11739 ft | 395 kts | 208° |
| 2026-04-20 12:48 | 19.27736 | 109.78449 | 11740 ft | 395 kts | 208° |
| 2026-04-20 12:48 | 19.25308 | 109.77114 | 11744 ft | 395 kts | 208° |
| 2026-04-20 12:48 | 19.22821 | 109.75799 | 11752 ft | 395 kts | 206° |
| 2026-04-20 12:49 | 19.20343 | 109.74579 | 11753 ft | 396 kts | 205° |
| 2026-04-20 12:49 | 19.17811 | 109.73380 | 11758 ft | 395 kts | 205° |
| 2026-04-20 12:49 | 19.15270 | 109.72188 | 11763 ft | 396 kts | 205° |
| 2026-04-20 12:49 | 19.12766 | 109.71010 | 11776 ft | 397 kts | 205° |
| 2026-04-20 12:50 | 19.10223 | 109.69804 | 11787 ft | 397 kts | 205° |
| 2026-04-20 12:50 | 19.07697 | 109.68597 | 11796 ft | 397 kts | 205° |
| 2026-04-20 12:50 | 19.05168 | 109.67382 | 11808 ft | 398 kts | 205° |
| 2026-04-20 12:50 | 19.02648 | 109.66168 | 11810 ft | 397 kts | 205° |
| 2026-04-20 12:51 | 19.00105 | 109.64944 | 11817 ft | 397 kts | 205° |
| 2026-04-20 12:51 | 18.97603 | 109.63739 | 11817 ft | 397 kts | 205° |
| 2026-04-20 12:51 | 18.95058 | 109.62515 | 11815 ft | 397 kts | 205° |
| 2026-04-20 12:51 | 18.92554 | 109.61310 | 11813 ft | 397 kts | 205° |
| 2026-04-20 12:52 | 18.90040 | 109.60101 | 11812 ft | 396 kts | 205° |
| 2026-04-20 12:52 | 18.87526 | 109.58894 | 11806 ft | 396 kts | 205° |
| 2026-04-20 12:52 | 18.85014 | 109.57687 | 11802 ft | 395 kts | 205° |
| 2026-04-20 12:52 | 18.82492 | 109.56477 | 11798 ft | 397 kts | 205° |
| 2026-04-20 12:53 | 18.79968 | 109.55265 | 11794 ft | 397 kts | 205° |
| 2026-04-20 12:53 | 18.77444 | 109.54054 | 11789 ft | 396 kts | 205° |
| 2026-04-20 12:53 | 18.74940 | 109.52852 | 11781 ft | 396 kts | 205° |
| 2026-04-20 12:53 | 18.72448 | 109.51657 | 11762 ft | 393 kts | 205° |
| 2026-04-20 12:54 | 18.69977 | 109.50473 | 11032 ft | 388 kts | 205° |
| 2026-04-20 12:54 | 18.67514 | 109.49293 | 10057 ft | 386 kts | 205° |
| 2026-04-20 12:54 | 18.65105 | 109.48139 | 9234 ft | 380 kts | 205° |
| 2026-04-20 12:54 | 18.62716 | 109.46995 | 8418 ft | 374 kts | 205° |
| 2026-04-20 12:55 | 18.60369 | 109.45871 | 8017 ft | 368 kts | 205° |
| 2026-04-20 12:55 | 18.58139 | 109.44803 | 7913 ft | 337 kts | 205° |
| 2026-04-20 12:55 | 18.56069 | 109.43812 | 7894 ft | 313 kts | 205° |
| 2026-04-20 12:55 | 18.54151 | 109.42893 | 7894 ft | 291 kts | 205° |
| 2026-04-20 12:56 | 18.52347 | 109.42030 | 7891 ft | 272 kts | 204° |
| 2026-04-20 12:56 | 18.50672 | 109.41230 | 7893 ft | 254 kts | 204° |
| 2026-04-20 12:56 | 18.49115 | 109.40423 | 7844 ft | 244 kts | 211° |
| 2026-04-20 12:56 | 18.47822 | 109.39285 | 7453 ft | 247 kts | 229° |
| 2026-04-20 12:57 | 18.46765 | 109.37863 | 7122 ft | 247 kts | 233° |
| 2026-04-20 12:57 | 18.45740 | 109.36420 | 6795 ft | 246 kts | 232° |
| 2026-04-20 12:57 | 18.44691 | 109.35005 | 6492 ft | 244 kts | 231° |
| 2026-04-20 12:57 | 18.43632 | 109.33620 | 6180 ft | 242 kts | 230° |
| 2026-04-20 12:58 | 18.42575 | 109.32253 | 5855 ft | 242 kts | 229° |
| 2026-04-20 12:58 | 18.41503 | 109.30869 | 5521 ft | 242 kts | 229° |
| 2026-04-20 12:58 | 18.40438 | 109.29491 | 5204 ft | 241 kts | 229° |
| 2026-04-20 12:58 | 18.39392 | 109.28134 | 4931 ft | 238 kts | 230° |
| 2026-04-20 12:59 | 18.38511 | 109.26659 | 4878 ft | 242 kts | 245° |
| 2026-04-20 12:59 | 18.38104 | 109.24846 | 4882 ft | 261 kts | 261° |
| 2026-04-20 12:59 | 18.37926 | 109.22983 | 4866 ft | 248 kts | 263° |
| 2026-04-20 12:59 | 18.37763 | 109.21201 | 4871 ft | 243 kts | 262° |
| 2026-04-20 13:00 | 18.37525 | 109.19502 | 4867 ft | 231 kts | 253° |
| 2026-04-20 13:00 | 18.36818 | 109.18024 | 4863 ft | 225 kts | 224° |
| 2026-04-20 13:00 | 18.35520 | 109.17139 | 4867 ft | 221 kts | 198° |
| 2026-04-20 13:00 | 18.34049 | 109.16771 | 4841 ft | 215 kts | 184° |
| 2026-04-20 13:01 | 18.32551 | 109.16843 | 4550 ft | 214 kts | 170° |
| 2026-04-20 13:01 | 18.31090 | 109.17107 | 4280 ft | 213 kts | 168° |
| 2026-04-20 13:01 | 18.29636 | 109.17436 | 4014 ft | 211 kts | 160° |
| 2026-04-20 13:01 | 18.28384 | 109.18203 | 3754 ft | 208 kts | 133° |
| 2026-04-20 13:02 | 18.27718 | 109.19527 | 3504 ft | 209 kts | 106° |
| 2026-04-20 13:02 | 18.27595 | 109.21040 | 3250 ft | 211 kts | 89° |
| 2026-04-20 13:02 | 18.27793 | 109.22582 | 3000 ft | 210 kts | 84° |
| 2026-04-20 13:02 | 18.28030 | 109.24110 | 2755 ft | 209 kts | 85° |
| 2026-04-20 13:03 | 18.28242 | 109.25609 | 2505 ft | 208 kts | 85° |
| 2026-04-20 13:03 | 18.28443 | 109.27116 | 2310 ft | 203 kts | 86° |
| 2026-04-20 13:03 | 18.28637 | 109.28586 | 2098 ft | 201 kts | 86° |
| 2026-04-20 13:03 | 18.28830 | 109.30050 | 1824 ft | 200 kts | 86° |
| 2026-04-20 13:04 | 18.29021 | 109.31505 | 1558 ft | 199 kts | 86° |
| 2026-04-20 13:04 | 18.29210 | 109.32940 | 1300 ft | 198 kts | 85° |
| 2026-04-20 13:04 | 18.29394 | 109.34334 | 1054 ft | 183 kts | 85° |
| 2026-04-20 13:04 | 18.29562 | 109.35574 | 843 ft | 157 kts | 85° |
| 2026-04-20 13:05 | 18.29701 | 109.36646 | 629 ft | 143 kts | 86° |
| 2026-04-20 13:05 | 18.29830 | 109.37643 | 457 ft | 132 kts | 84° |
| 2026-04-20 13:05 | 18.29954 | 109.38592 | 279 ft | 128 kts | 86° |
| 2026-04-20 13:05 | 18.30071 | 109.39510 | 136 ft | 124 kts | 83° |
| 2026-04-20 13:06 | 18.30184 | 109.40379 | 76 ft | 108 kts | 83° |